Flugplatz Schönberg (EDPK)

Hier findest Du alle Informationen zum Flugplatz Schönberg (EDPK).

Informationen für Piloten zum Flugplatz Schönberg

Hier findest Du alle relevanten Informationen, die Du als Pilot benötigst, um Schönberg anzufliegen.

Flugplatz: Schönberg ICAO-Code: EDPK
Frequenz Turm: 118,55 Mhz GAFOR Gebiet: -
Frequenz Ground: 118,55 Mhz Mogas: ja
Platzrunde: N 2600 ft Landegebühr: 5 €
Platzhöhe: Sunrise: 05:52 Uhr UTC
Pisten: 08/26 - 450 m x 30 m, GRAS Sunset: 16:53 Uhr UTC

Flugwetter am Flugplatz Schönberg

Die METAR Information stammen aus EDDM (63.02 km entfernt).

METAR Code:
2024/02/26 16:20
EDDM 261620Z AUTO 05004KT CAVOK 09/03 Q1002 NOSIG

Flugschulen am Flugplatz Schönberg

Am Flugplatz Schönberg gibt es leider keine Flugschule.

Benachbarte Flugplätze und Flugschulen

Es gibt 15 weitere Flugplätze in einem Umkreis von 50 km um den Flugplatz Schönberg.

Jetzt anmelden

Passwort vergessen

Umfrage Archiv

Wie häufig haltet Ihr die Halbkreisflugregel ein?

Eher häufig!
35 %
Immer!
32.5 %
Hin und wieder!
15.5 %
Nie!
10.2 %
Eher selten!
6.8 %
Stimmen: 206 | Diskussion
Anzeige: Roland Aircraft
Statistik Alle Mitglieder

Aktuell sind 13 Besucher online, davon 2 Mitglieder und 11 Gäste.


Mitglieder online:
Pilot Quax  Chris_EDNC 

Anzeige: EasyVFR